Time;durP1;ratioP1;P1;durP2;ratioP2;P2;SDS_P1;SDS_P2;PMS_P1;PMS_P2;Temp;Humidity;BMP_temperature;BMP_pressure;BME280_temperature;BME280_humidity;BME280_pressure;Samples;Min_cycle;Max_cycle;Signal;HPM_P1;HPM_P2
2022/10/24 00:01:30;;;;;;;10.32;1.90;;;15.80;97.20;;;;;;5098134;28;20488;-78
2022/10/24 00:03:56;;;;;;;11.70;1.83;;;15.90;97.40;;;;;;5098503;28;20028;-79
2022/10/24 00:06:22;;;;;;;14.00;2.28;;;15.80;97.20;;;;;;5093902;28;20032;-78
2022/10/24 00:08:48;;;;;;;11.75;1.83;;;15.80;97.60;;;;;;5098263;28;20035;-79
2022/10/24 00:11:26;;;;;;;13.02;2.15;;;15.90;98.10;;;;;;5097653;28;20103;-79
2022/10/24 00:13:54;;;;;;;9.48;2.25;;;15.80;98.30;;;;;;5097421;28;20031;-81
2022/10/24 00:16:20;;;;;;;11.07;1.80;;;15.80;98.70;;;;;;5096369;28;20036;-80
2022/10/24 00:18:46;;;;;;;9.90;2.20;;;15.70;98.80;;;;;;5096145;28;20024;-80
2022/10/24 00:21:12;;;;;;;9.30;1.83;;;15.70;99.00;;;;;;5097729;28;20043;-80
2022/10/24 00:23:38;;;;;;;9.57;1.90;;;15.70;98.70;;;;;;5097462;28;20129;-79
2022/10/24 00:26:05;;;;;;;9.95;1.80;;;15.60;99.90;;;;;;5095136;28;20028;-79
2022/10/24 00:28:34;;;;;;;7.65;1.65;;;15.70;99.20;;;;;;5094041;28;20059;-80
2022/10/24 00:31:00;;;;;;;3.92;1.25;;;15.70;99.90;;;;;;5084276;28;20031;-80
2022/10/24 00:33:26;;;;;;;4.22;0.95;;;15.70;99.50;;;;;;5094805;28;20486;-80
2022/10/24 00:35:52;;;;;;;4.88;0.85;;;15.70;99.40;;;;;;5094856;28;20024;-80
2022/10/24 00:38:17;;;;;;;5.82;1.08;;;15.70;99.10;;;;;;5096178;28;20083;-79
2022/10/24 00:40:44;;;;;;;2.63;0.60;;;15.70;99.20;;;;;;5097181;28;20030;-80
2022/10/24 00:43:17;;;;;;;3.92;0.60;;;15.70;98.90;;;;;;5087802;28;20032;-80
2022/10/24 00:45:46;;;;;;;2.05;0.45;;;15.70;98.90;;;;;;5093339;28;20019;-80
2022/10/24 00:48:34;;;;;;;1.90;0.45;;;15.60;98.70;;;;;;5096943;28;20032;-79
2022/10/24 00:51:15;;;;;;;1.08;0.43;;;15.60;98.20;;;;;;5091361;28;20028;-80
2022/10/24 00:53:48;;;;;;;2.90;0.40;;;15.60;98.40;;;;;;5086190;28;20024;-79
2022/10/24 00:56:15;;;;;;;;;;;15.50;98.30;;;;;;5097320;28;20023;-79
2022/10/24 00:58:43;;;;;;;2.55;0.50;;;15.50;97.70;;;;;;5095760;28;19915;-79
2022/10/24 01:01:10;;;;;;;2.35;0.50;;;15.50;98.10;;;;;;5096585;28;20438;-79
2022/10/24 01:03:36;;;;;;;2.72;0.30;;;15.50;98.10;;;;;;5089237;28;20024;-79
2022/10/24 01:06:23;;;;;;;1.75;0.30;;;15.40;98.00;;;;;;5095631;28;20099;-79
2022/10/24 01:09:17;;;;;;;2.88;0.68;;;15.40;97.70;;;;;;5096595;28;20028;-79
2022/10/24 01:12:21;;;;;;;2.70;0.38;;;15.30;98.00;;;;;;5095769;28;20028;-78
2022/10/24 01:14:51;;;;;;;;;;;15.30;98.10;;;;;;5097372;28;20031;-78
2022/10/24 01:17:44;;;;;;;1.98;0.45;;;15.40;98.00;;;;;;5095612;28;20287;-78
2022/10/24 01:20:34;;;;;;;2.83;0.60;;;15.30;98.30;;;;;;5096902;28;20027;-78
2022/10/24 01:23:25;;;;;;;2.53;0.43;;;15.30;98.20;;;;;;5096975;28;20392;-78
2022/10/24 01:25:58;;;;;;;1.83;0.40;;;15.30;98.30;;;;;;5095298;28;20050;-77
2022/10/24 01:28:31;;;;;;;2.38;0.50;;;15.30;98.40;;;;;;5081932;28;20067;-78
2022/10/24 01:31:17;;;;;;;2.53;0.47;;;15.30;98.40;;;;;;5084338;28;20043;-78
2022/10/24 01:33:52;;;;;;;5.18;0.57;;;15.30;98.20;;;;;;5095151;28;20025;-78
2022/10/24 01:36:35;;;;;;;6.65;0.50;;;15.30;98.30;;;;;;5096071;28;20058;-77
2022/10/24 01:39:05;;;;;;;1.75;0.50;;;15.30;98.40;;;;;;5094755;28;20488;-78
2022/10/24 01:41:32;;;;;;;2.92;0.70;;;15.30;98.60;;;;;;5093925;28;20024;-79
2022/10/24 01:44:07;;;;;;;1.73;0.50;;;15.40;98.60;;;;;;5086335;28;20396;-79
2022/10/24 01:46:38;;;;;;;2.60;0.75;;;15.40;98.50;;;;;;5093447;28;20023;-79
2022/10/24 01:49:14;;;;;;;3.08;0.63;;;15.40;98.60;;;;;;5092898;28;20022;-79
2022/10/24 01:51:41;;;;;;;5.57;0.90;;;15.40;98.30;;;;;;5093797;28;20056;-79
2022/10/24 01:54:09;;;;;;;4.38;0.68;;;15.40;98.40;;;;;;5089203;28;20020;-79
2022/10/24 01:56:34;;;;;;;4.18;0.63;;;15.40;98.40;;;;;;5096460;28;20024;-80
2022/10/24 01:59:28;;;;;;;4.25;0.60;;;15.40;98.50;;;;;;5094145;28;20042;-79
2022/10/24 02:02:03;;;;;;;3.40;0.82;;;15.40;98.30;;;;;;5081290;28;20028;-79
2022/10/24 02:04:31;;;;;;;3.78;0.70;;;15.40;98.40;;;;;;5093847;28;20484;-79
2022/10/24 02:07:03;;;;;;;6.53;1.17;;;15.40;98.40;;;;;;5099193;28;20027;-79
2022/10/24 02:09:31;;;;;;;5.97;0.90;;;15.40;98.30;;;;;;5100123;28;20024;-79
2022/10/24 02:11:58;;;;;;;7.90;0.85;;;15.40;98.30;;;;;;5087965;28;20504;-79
2022/10/24 02:14:32;;;;;;;3.13;0.68;;;15.30;98.20;;;;;;5097800;28;20031;-79
2022/10/24 02:16:59;;;;;;;3.97;0.73;;;15.30;98.10;;;;;;5100054;28;20040;-79
2022/10/24 02:19:25;;;;;;;4.30;1.13;;;15.30;98.20;;;;;;5098452;28;20024;-79
2022/10/24 02:22:24;;;;;;;3.55;0.80;;;15.30;98.30;;;;;;5100417;28;20034;-80
2022/10/24 02:25:10;;;;;;;3.58;0.65;;;15.30;98.00;;;;;;5098046;28;20032;-80
2022/10/24 02:28:01;;;;;;;4.03;0.77;;;15.30;98.00;;;;;;5098152;28;20028;-80
2022/10/24 02:30:29;;;;;;;5.15;0.95;;;15.30;97.90;;;;;;5097693;28;20051;-80
2022/10/24 02:32:57;;;;;;;3.83;0.90;;;15.20;98.10;;;;;;5099849;28;20047;-79
2022/10/24 02:35:29;;;;;;;5.80;0.80;;;15.20;98.10;;;;;;5092501;28;20027;-79
2022/10/24 02:38:24;;;;;;;4.47;0.80;;;15.30;98.10;;;;;;5099929;28;20028;-79
2022/10/24 02:40:51;;;;;;;5.13;0.85;;;15.30;97.90;;;;;;5083007;28;20527;-78
2022/10/24 02:43:18;;;;;;;5.72;0.85;;;15.20;98.00;;;;;;5087086;28;20497;-78
2022/10/24 02:45:45;;;;;;;2.97;0.70;;;15.20;98.10;;;;;;5098033;28;20511;-79
2022/10/24 02:48:15;;;;;;;5.05;0.77;;;15.20;98.20;;;;;;5099566;28;20032;-79
2022/10/24 02:50:42;;;;;;;2.63;0.60;;;15.20;98.00;;;;;;5090245;28;20028;-79
2022/10/24 02:53:14;;;;;;;4.40;1.00;;;15.20;98.10;;;;;;5097896;28;20030;-78
2022/10/24 02:55:40;;;;;;;5.07;0.98;;;15.20;97.90;;;;;;5096471;28;20020;-78
2022/10/24 02:58:06;;;;;;;7.05;0.77;;;15.20;98.20;;;;;;5099629;28;20549;-79
2022/10/24 03:00:32;;;;;;;2.72;0.80;;;15.20;98.10;;;;;;5099047;28;20488;-79
2022/10/24 03:02:57;;;;;;;7.03;1.00;;;15.30;98.20;;;;;;5092303;28;20507;-79
2022/10/24 03:05:23;;;;;;;5.05;0.70;;;15.30;98.20;;;;;;5090540;28;20618;-79
2022/10/24 03:07:48;;;;;;;4.45;0.65;;;15.30;98.20;;;;;;5095930;28;20111;-78
2022/10/24 03:10:14;;;;;;;4.22;0.70;;;15.30;98.30;;;;;;5097929;28;20024;-78
2022/10/24 03:12:40;;;;;;;6.18;0.85;;;15.30;98.20;;;;;;5098747;28;20059;-78
2022/10/24 03:15:07;;;;;;;4.55;0.93;;;15.30;98.70;;;;;;5097482;28;20047;-77
2022/10/24 03:17:33;;;;;;;2.25;0.60;;;15.20;98.90;;;;;;5098910;28;20055;-78
2022/10/24 03:19:58;;;;;;;3.88;0.60;;;15.20;99.10;;;;;;5097559;28;20392;-78
2022/10/24 03:22:24;;;;;;;3.50;0.60;;;15.20;99.60;;;;;;5099352;28;20039;-79
2022/10/24 03:24:49;;;;;;;2.67;0.43;;;15.20;99.40;;;;;;5097773;28;20024;-79
2022/10/24 03:27:15;;;;;;;3.33;0.85;;;15.20;99.50;;;;;;5098483;28;20026;-79
2022/10/24 03:29:41;;;;;;;3.45;0.60;;;15.20;99.50;;;;;;5098584;28;20021;-79
2022/10/24 03:32:06;;;;;;;4.45;0.80;;;15.20;99.50;;;;;;5085439;28;20032;-79
2022/10/24 03:34:32;;;;;;;5.00;1.05;;;15.20;99.50;;;;;;5097576;28;20027;-79
2022/10/24 03:36:58;;;;;;;3.08;0.73;;;15.20;99.90;;;;;;5095468;28;20553;-80
2022/10/24 03:39:24;;;;;;;3.95;0.60;;;15.20;99.50;;;;;;5095795;28;20032;-80
2022/10/24 03:41:49;;;;;;;5.13;0.82;;;15.20;99.40;;;;;;5077894;28;20033;-80
2022/10/24 03:44:15;;;;;;;4.03;0.70;;;15.20;99.60;;;;;;5094169;28;20035;-80
2022/10/24 03:46:41;;;;;;;5.38;1.00;;;15.20;99.60;;;;;;5096954;28;20039;-79
2022/10/24 03:49:06;;;;;;;6.13;0.90;;;15.20;99.70;;;;;;5094277;28;20484;-78
2022/10/24 03:51:32;;;;;;;4.18;0.70;;;15.30;99.60;;;;;;5098485;28;20389;-79
2022/10/24 03:53:58;;;;;;;5.78;1.10;;;15.30;99.50;;;;;;5100144;28;20028;-80
2022/10/24 03:56:23;;;;;;;4.47;0.85;;;15.40;99.70;;;;;;5097002;28;20076;-78
2022/10/24 03:58:49;;;;;;;5.13;0.93;;;15.40;99.50;;;;;;5096932;28;20520;-77
2022/10/24 04:01:17;;;;;;;8.25;1.30;;;15.40;99.60;;;;;;5087161;28;20549;-77
2022/10/24 04:03:46;;;;;;;6.38;0.95;;;15.40;99.70;;;;;;5084959;28;20047;-78
2022/10/24 04:06:12;;;;;;;5.13;0.80;;;15.40;99.50;;;;;;5096638;28;20072;-78
2022/10/24 04:08:38;;;;;;;7.15;1.20;;;15.50;99.60;;;;;;5096190;28;20112;-78
2022/10/24 04:11:05;;;;;;;5.93;0.82;;;15.50;99.80;;;;;;5080753;28;20488;-78
2022/10/24 04:13:31;;;;;;;7.80;1.05;;;15.50;99.30;;;;;;5097743;28;20020;-78
2022/10/24 04:15:57;;;;;;;6.57;1.13;;;15.40;99.20;;;;;;5096294;28;20513;-78
2022/10/24 04:18:22;;;;;;;5.85;1.20;;;15.50;99.20;;;;;;5084687;28;20024;-78
2022/10/24 04:20:48;;;;;;;5.07;1.08;;;15.50;99.30;;;;;;5096416;28;20081;-78
2022/10/24 04:23:14;;;;;;;5.63;1.02;;;15.50;99.20;;;;;;5097474;28;20388;-78
2022/10/24 04:25:40;;;;;;;7.10;0.93;;;15.50;99.30;;;;;;5077846;28;20501;-78
2022/10/24 04:28:06;;;;;;;7.43;1.13;;;15.50;99.20;;;;;;5091402;28;20488;-78
2022/10/24 04:30:32;;;;;;;9.25;1.65;;;15.50;99.30;;;;;;5095642;28;20055;-77
2022/10/24 04:32:57;;;;;;;6.22;1.38;;;15.50;99.40;;;;;;5085424;28;20031;-77
2022/10/24 04:35:24;;;;;;;6.70;1.38;;;15.50;99.40;;;;;;5097615;28;20111;-77
2022/10/24 04:37:50;;;;;;;7.05;1.50;;;15.50;99.30;;;;;;5094427;28;20024;-77
2022/10/24 04:40:16;;;;;;;9.88;1.70;;;15.50;99.40;;;;;;5097100;28;20103;-77
2022/10/24 04:42:41;;;;;;;11.23;1.95;;;15.50;99.40;;;;;;5094583;28;20048;-77
2022/10/24 04:45:08;;;;;;;8.40;1.50;;;15.50;99.40;;;;;;5091386;28;20047;-77
2022/10/24 04:47:34;;;;;;;9.55;1.58;;;15.60;99.30;;;;;;5088400;28;20512;-79
2022/10/24 04:49:59;;;;;;;8.10;1.48;;;15.60;99.30;;;;;;5094447;28;20076;-79
2022/10/24 04:52:25;;;;;;;10.93;1.83;;;15.60;99.30;;;;;;5092096;28;20024;-78
2022/10/24 04:54:51;;;;;;;10.25;1.63;;;15.60;99.30;;;;;;5085343;28;20032;-78
2022/10/24 04:57:16;;;;;;;8.57;1.70;;;15.60;99.40;;;;;;5095630;28;20036;-78
2022/10/24 04:59:42;;;;;;;7.82;1.63;;;15.60;99.30;;;;;;5095968;28;20141;-78
2022/10/24 05:02:08;;;;;;;7.85;1.50;;;15.60;99.40;;;;;;5090115;28;20389;-78
2022/10/24 05:04:34;;;;;;;11.10;2.03;;;15.60;99.40;;;;;;5090177;28;20115;-78
2022/10/24 05:06:59;;;;;;;12.13;1.95;;;15.60;99.40;;;;;;5096053;28;20103;-79
2022/10/24 05:09:25;;;;;;;12.93;1.98;;;15.60;99.50;;;;;;5090987;28;20024;-78
2022/10/24 05:11:54;;;;;;;13.20;1.95;;;15.60;99.60;;;;;;5090431;28;20111;-79
2022/10/24 05:14:19;;;;;;;10.13;2.05;;;15.60;99.60;;;;;;5084467;28;20032;-79
2022/10/24 05:16:47;;;;;;;13.32;1.83;;;15.60;99.60;;;;;;5096764;28;20512;-80
2022/10/24 05:19:13;;;;;;;12.57;1.90;;;15.70;99.60;;;;;;5084490;28;20571;-79
2022/10/24 05:21:38;;;;;;;15.07;2.25;;;15.60;99.60;;;;;;5088091;28;20031;-80
2022/10/24 05:24:04;;;;;;;10.40;1.73;;;15.70;99.70;;;;;;5096287;28;20020;-80
2022/10/24 05:26:30;;;;;;;13.93;2.42;;;15.60;99.60;;;;;;5095596;28;20024;-80
2022/10/24 05:28:55;;;;;;;12.10;1.92;;;15.70;99.50;;;;;;5085511;28;20028;-78
2022/10/24 05:31:21;;;;;;;9.95;1.70;;;15.70;99.60;;;;;;5079012;28;20032;-78
2022/10/24 05:33:47;;;;;;;16.42;3.05;;;15.70;99.50;;;;;;5086663;28;20078;-78
2022/10/24 05:36:13;;;;;;;13.35;2.20;;;15.60;99.50;;;;;;5082068;28;20423;-79
2022/10/24 05:38:38;;;;;;;9.88;1.70;;;15.60;99.40;;;;;;5098645;28;20025;-80
2022/10/24 05:41:04;;;;;;;11.57;1.90;;;15.60;99.50;;;;;;5101118;28;20028;-79
2022/10/24 05:43:30;;;;;;;12.25;1.92;;;15.60;99.50;;;;;;5092518;28;20024;-80
2022/10/24 05:45:55;;;;;;;14.60;2.00;;;15.60;99.50;;;;;;5099376;28;20028;-78
2022/10/24 05:48:21;;;;;;;14.57;2.15;;;15.50;99.40;;;;;;5100939;28;20036;-79
2022/10/24 05:50:46;;;;;;;14.77;2.05;;;15.50;99.50;;;;;;5095118;28;20028;-76
2022/10/24 05:53:12;;;;;;;12.23;2.00;;;15.50;99.50;;;;;;5094902;28;20028;-76
2022/10/24 05:55:38;;;;;;;9.40;2.42;;;15.50;99.60;;;;;;5094714;28;20012;-76
2022/10/24 05:58:03;;;;;;;13.93;1.90;;;15.50;99.60;;;;;;5099628;28;20028;-79
2022/10/24 06:00:29;;;;;;;11.52;2.00;;;15.50;99.60;;;;;;5100614;28;20024;-79
2022/10/24 06:02:55;;;;;;;10.63;2.40;;;15.50;99.70;;;;;;5099391;28;20024;-78
2022/10/24 06:05:20;;;;;;;12.80;2.30;;;15.50;99.60;;;;;;5100711;28;20519;-79
2022/10/24 06:07:46;;;;;;;14.05;2.13;;;15.50;99.70;;;;;;5100898;28;20031;-78
2022/10/24 06:10:12;;;;;;;13.90;2.08;;;15.50;99.50;;;;;;5099338;28;20047;-78
2022/10/24 06:12:38;;;;;;;16.25;2.28;;;15.50;99.50;;;;;;5100630;28;20031;-79
2022/10/24 06:15:06;;;;;;;12.10;2.38;;;15.50;99.90;;;;;;5100409;28;20488;-79
2022/10/24 06:17:32;;;;;;;15.45;2.60;;;15.40;99.60;;;;;;5098816;28;20051;-77
2022/10/24 06:19:58;;;;;;;10.80;1.90;;;15.40;99.60;;;;;;5098806;28;20088;-78
2022/10/24 06:22:26;;;;;;;14.52;2.58;;;15.40;99.60;;;;;;5098934;28;20107;-77
2022/10/24 06:24:52;;;;;;;13.38;2.05;;;15.40;99.90;;;;;;5100037;28;20034;-78
2022/10/24 06:27:18;;;;;;;9.07;1.85;;;15.40;99.70;;;;;;5098640;28;20020;-78
2022/10/24 06:29:44;;;;;;;16.67;2.53;;;15.40;99.70;;;;;;5099868;28;20020;-78
2022/10/24 06:32:10;;;;;;;13.98;1.88;;;15.40;99.70;;;;;;5099057;28;20597;-78
2022/10/24 06:34:35;;;;;;;16.08;2.20;;;15.40;99.70;;;;;;5098486;28;20017;-77
2022/10/24 06:37:01;;;;;;;11.68;2.08;;;15.30;99.70;;;;;;5100043;28;20058;-76
2022/10/24 06:39:27;;;;;;;12.18;1.80;;;15.30;99.80;;;;;;5099746;28;20020;-79
2022/10/24 06:41:53;;;;;;;12.00;1.95;;;15.30;99.80;;;;;;5097387;28;20052;-82
2022/10/24 06:44:18;;;;;;;10.23;2.05;;;15.30;99.80;;;;;;5089461;28;20073;-83
2022/10/24 06:46:44;;;;;;;13.05;2.05;;;15.30;99.80;;;;;;5098409;28;20400;-79
2022/10/24 06:49:13;;;;;;;10.55;1.75;;;15.30;99.80;;;;;;5093866;28;20021;-81
2022/10/24 06:51:39;;;;;;;11.27;1.88;;;15.30;99.80;;;;;;5095638;28;20024;-79
2022/10/24 06:54:05;;;;;;;14.10;2.33;;;15.30;99.80;;;;;;5096426;28;20499;-79
2022/10/24 06:56:31;;;;;;;10.07;1.98;;;15.30;99.80;;;;;;5098050;28;20024;-79
2022/10/24 06:58:57;;;;;;;12.90;2.20;;;15.30;99.90;;;;;;5099175;28;20362;-77
2022/10/24 07:01:24;;;;;;;13.25;2.00;;;15.30;99.90;;;;;;5099352;28;20032;-79
2022/10/24 07:03:51;;;;;;;9.50;1.65;;;15.30;99.90;;;;;;5099637;28;20107;-79
2022/10/24 07:06:24;;;;;;;11.73;1.60;;;15.40;99.90;;;;;;5099408;28;20024;-79
2022/10/24 07:08:50;;;;;;;;;;;15.30;99.90;;;;;;5099781;28;20519;-77
2022/10/24 07:11:16;;;;;;;12.98;1.88;;;15.30;99.50;;;;;;5097700;28;19956;-77
2022/10/24 07:13:42;;;;;;;14.40;1.92;;;15.30;99.90;;;;;;5099431;28;20032;-79
2022/10/24 07:16:08;;;;;;;10.75;2.10;;;15.30;99.90;;;;;;5094517;28;20047;-77
2022/10/24 07:18:34;;;;;;;11.45;2.20;;;15.40;99.90;;;;;;5107479;28;20032;-77
2022/10/24 07:21:20;;;;;;;18.80;2.10;;;15.40;99.90;;;;;;5087064;28;20020;-77
2022/10/24 07:23:46;;;;;;;10.30;1.77;;;15.40;99.80;;;;;;5098929;28;20032;-77
2022/10/24 07:26:14;;;;;;;9.27;1.77;;;15.40;99.90;;;;;;5098874;28;20081;-77
2022/10/24 07:28:40;;;;;;;13.77;1.98;;;15.40;99.90;;;;;;5097422;28;20059;-77
2022/10/24 07:31:06;;;;;;;13.43;2.08;;;15.40;99.90;;;;;;5107265;28;20092;-77
2022/10/24 07:33:33;;;;;;;12.18;1.90;;;15.40;99.90;;;;;;5097295;28;20032;-78
2022/10/24 07:35:59;;;;;;;10.38;1.77;;;15.50;99.90;;;;;;5098751;28;20027;-78
2022/10/24 07:38:24;;;;;;;12.20;1.80;;;15.50;99.90;;;;;;5098276;28;20020;-79
2022/10/24 07:40:50;;;;;;;12.70;2.15;;;15.50;99.90;;;;;;5098591;28;20400;-77
2022/10/24 07:43:16;;;;;;;16.92;2.15;;;15.60;99.90;;;;;;5097360;28;20081;-78
2022/10/24 07:45:43;;;;;;;7.90;1.52;;;15.60;99.90;;;;;;5097490;28;20031;-77
2022/10/24 07:48:09;;;;;;;9.32;1.75;;;15.70;99.90;;;;;;5098620;28;20028;-76
2022/10/24 07:50:42;;;;;;;12.75;1.75;;;15.80;99.90;;;;;;5096883;28;20028;-76
2022/10/24 07:53:08;;;;;;;8.70;1.75;;;15.90;99.90;;;;;;5094325;28;20028;-77
2022/10/24 07:55:37;;;;;;;9.50;1.58;;;15.90;99.90;;;;;;5097404;28;20107;-78
2022/10/24 07:58:03;;;;;;;10.57;1.60;;;16.00;99.80;;;;;;5098303;28;20020;-77
2022/10/24 08:00:29;;;;;;;13.70;1.75;;;16.00;99.70;;;;;;5097986;28;20035;-78
2022/10/24 08:02:54;;;;;;;13.68;2.13;;;16.00;99.70;;;;;;5097546;28;20024;-78
2022/10/24 08:05:20;;;;;;;9.82;1.58;;;16.00;99.70;;;;;;5098335;28;20028;-78
2022/10/24 08:07:46;;;;;;;7.93;1.63;;;16.00;99.70;;;;;;5098312;28;20024;-78
2022/10/24 08:10:12;;;;;;;7.97;1.73;;;16.00;99.70;;;;;;5098051;28;20020;-78
2022/10/24 08:12:38;;;;;;;9.82;1.70;;;16.00;99.70;;;;;;5097231;28;20043;-78
2022/10/24 08:15:04;;;;;;;10.38;1.88;;;16.00;99.80;;;;;;5098034;28;20053;-78
2022/10/24 08:17:30;;;;;;;8.80;1.92;;;16.00;99.90;;;;;;5097726;28;20040;-78
2022/10/24 08:19:55;;;;;;;14.38;1.85;;;16.00;99.90;;;;;;5098332;28;20073;-77
2022/10/24 08:22:21;;;;;;;9.32;1.60;;;16.00;99.90;;;;;;5097908;28;20024;-68
2022/10/24 08:24:47;;;;;;;11.65;1.83;;;16.00;99.90;;;;;;5098016;28;20028;-68
2022/10/24 08:27:12;;;;;;;7.20;1.65;;;16.00;99.90;;;;;;5097715;28;20021;-68
2022/10/24 08:29:38;;;;;;;9.05;1.58;;;16.00;99.90;;;;;;5097919;28;20036;-68
2022/10/24 08:32:05;;;;;;;8.43;1.40;;;16.10;99.90;;;;;;5094444;28;20050;-67
2022/10/24 08:34:32;;;;;;;6.72;1.30;;;16.10;99.90;;;;;;5094671;28;20480;-68
2022/10/24 08:36:58;;;;;;;11.13;1.60;;;16.00;99.70;;;;;;5097158;28;20044;-68
2022/10/24 08:39:23;;;;;;;9.30;1.50;;;16.00;99.70;;;;;;5097013;28;20077;-68
2022/10/24 08:41:55;;;;;;;12.20;2.00;;;16.00;99.60;;;;;;5097017;28;20020;-68
2022/10/24 08:44:24;;;;;;;10.80;1.95;;;16.00;99.90;;;;;;5097226;28;20114;-67
2022/10/24 08:47:11;;;;;;;8.65;1.52;;;16.00;99.80;;;;;;5096804;28;20027;-67
2022/10/24 08:49:45;;;;;;;11.18;1.80;;;16.10;99.70;;;;;;5095786;28;20110;-67
2022/10/24 08:52:28;;;;;;;10.95;1.95;;;16.10;99.80;;;;;;5096913;28;20468;-67
2022/10/24 08:54:56;;;;;;;11.85;2.03;;;16.10;99.70;;;;;;5094026;28;20020;-69
2022/10/24 08:57:28;;;;;;;10.43;1.90;;;16.10;99.80;;;;;;5096778;28;20027;-69
2022/10/24 09:00:00;;;;;;;7.07;1.38;;;16.10;99.90;;;;;;5096584;28;20030;-69
2022/10/24 09:02:34;;;;;;;12.60;1.48;;;16.20;99.90;;;;;;5096709;28;20020;-69
2022/10/24 09:05:10;;;;;;;10.10;2.00;;;16.20;99.70;;;;;;5096873;28;20027;-69
2022/10/24 09:07:36;;;;;;;9.48;1.52;;;16.20;99.70;;;;;;5096967;28;20016;-70
2022/10/24 09:10:17;;;;;;;12.35;2.03;;;16.30;99.50;;;;;;5096822;28;20024;-70
2022/10/24 09:12:43;;;;;;;9.40;1.73;;;16.40;99.50;;;;;;5097581;28;20024;-70
2022/10/24 09:15:21;;;;;;;12.10;2.00;;;16.50;99.70;;;;;;5103379;28;20099;-70
2022/10/24 09:17:48;;;;;;;7.82;1.50;;;16.60;99.40;;;;;;5103525;28;20165;-70
2022/10/24 09:20:27;;;;;;;8.68;1.40;;;16.60;99.30;;;;;;5102192;28;20047;-69
2022/10/24 09:22:57;;;;;;;11.40;2.08;;;16.70;99.20;;;;;;5102677;28;20536;-70
2022/10/24 09:25:30;;;;;;;11.23;1.67;;;16.80;99.20;;;;;;5101860;28;20034;-70
2022/10/24 09:28:05;;;;;;;9.05;1.45;;;16.90;99.00;;;;;;5102516;28;20468;-70
2022/10/24 09:30:32;;;;;;;5.63;1.42;;;17.00;98.60;;;;;;5103600;28;20024;-70
2022/10/24 09:33:00;;;;;;;10.93;1.67;;;17.00;98.70;;;;;;5103338;28;20027;-70
2022/10/24 09:35:28;;;;;;;10.10;1.50;;;17.10;98.40;;;;;;5103762;28;20605;-70
2022/10/24 09:38:18;;;;;;;5.35;1.60;;;17.10;98.20;;;;;;5102711;28;20027;-71
2022/10/24 09:40:50;;;;;;;10.98;1.70;;;17.10;98.10;;;;;;5101985;28;20043;-70
2022/10/24 09:43:20;;;;;;;8.55;1.55;;;17.10;97.70;;;;;;5101876;28;20111;-71
2022/10/24 09:45:49;;;;;;;7.18;1.20;;;17.10;98.00;;;;;;5102226;28;20027;-70
2022/10/24 09:48:23;;;;;;;9.25;1.42;;;17.10;97.70;;;;;;5102004;28;20028;-70
2022/10/24 09:50:51;;;;;;;8.48;2.05;;;17.10;97.50;;;;;;5102467;28;20035;-70
2022/10/24 09:53:21;;;;;;;7.55;1.48;;;17.10;97.20;;;;;;5100693;28;20051;-70
2022/10/24 09:55:50;;;;;;;8.73;1.42;;;17.00;97.40;;;;;;5103512;28;20028;-70
2022/10/24 09:58:28;;;;;;;6.60;1.30;;;16.90;97.20;;;;;;5103198;28;20454;-70
2022/10/24 10:01:02;;;;;;;6.45;1.40;;;16.90;97.40;;;;;;5102243;28;20036;-70
2022/10/24 10:03:28;;;;;;;12.25;1.75;;;16.90;97.60;;;;;;5103626;28;20056;-70
2022/10/24 10:05:55;;;;;;;9.77;1.40;;;16.80;97.40;;;;;;5103579;28;20024;-70
2022/10/24 10:08:26;;;;;;;7.55;1.83;;;16.80;97.40;;;;;;5103606;28;20388;-70
2022/10/24 10:11:03;;;;;;;7.43;1.40;;;16.70;97.30;;;;;;5101741;28;20020;-70
2022/10/24 10:13:36;;;;;;;6.95;1.40;;;16.70;97.40;;;;;;5102221;28;20020;-68
2022/10/24 10:16:04;;;;;;;7.18;1.30;;;16.70;97.50;;;;;;5103283;28;20039;-68
2022/10/24 10:18:39;;;;;;;6.07;1.20;;;16.70;97.50;;;;;;5103546;28;20444;-68
2022/10/24 10:21:14;;;;;;;6.35;1.50;;;16.70;97.70;;;;;;5103223;28;20020;-68
2022/10/24 10:23:40;;;;;;;8.20;1.50;;;16.70;97.30;;;;;;5103458;28;20020;-67
2022/10/24 10:26:11;;;;;;;6.13;1.30;;;16.80;97.50;;;;;;5099347;28;20037;-68
2022/10/24 10:28:55;;;;;;;5.55;1.25;;;16.90;97.40;;;;;;5100228;28;20107;-68
2022/10/24 10:31:56;;;;;;;8.38;1.30;;;16.90;97.20;;;;;;5098717;28;20020;-67
2022/10/24 10:34:37;;;;;;;5.45;1.05;;;16.80;97.00;;;;;;5092661;28;20504;-68
2022/10/24 10:37:31;;;;;;;8.52;1.02;;;16.80;96.50;;;;;;5100006;28;20016;-68
2022/10/24 10:40:06;;;;;;;5.43;1.13;;;16.80;96.80;;;;;;5099777;28;20020;-67
2022/10/24 10:43:04;;;;;;;6.32;1.10;;;16.80;96.90;;;;;;5098756;28;20498;-69
2022/10/24 10:45:35;;;;;;;6.53;0.98;;;16.80;97.00;;;;;;5099719;28;20048;-67
2022/10/24 10:48:29;;;;;;;8.02;1.25;;;16.80;97.00;;;;;;5099932;28;20020;-67
2022/10/24 10:51:02;;;;;;;;;;;16.70;97.00;;;;;;5100130;28;20414;-67
2022/10/24 10:53:39;;;;;;;3.33;1.13;;;16.70;97.00;;;;;;5097233;28;19926;-67
2022/10/24 10:56:22;;;;;;;6.93;1.10;;;16.60;97.00;;;;;;5099512;28;20094;-68
2022/10/24 10:59:02;;;;;;;6.00;1.15;;;16.60;97.20;;;;;;5100020;28;20032;-67
2022/10/24 11:01:55;;;;;;;8.40;1.02;;;16.60;97.30;;;;;;5099389;28;20027;-68
2022/10/24 11:04:36;;;;;;;10.00;2.33;;;16.60;97.30;;;;;;5070829;28;20056;-67
2022/10/24 11:07:19;;;;;;;6.70;1.50;;;16.60;97.40;;;;;;5099573;28;20031;-67
2022/10/24 11:09:52;;;;;;;7.63;1.42;;;16.60;97.20;;;;;;5099390;28;20373;-67
2022/10/24 11:12:24;;;;;;;7.55;1.50;;;16.60;97.20;;;;;;5098849;28;20024;-67
2022/10/24 11:14:56;;;;;;;5.80;1.40;;;16.50;97.10;;;;;;5099180;28;20027;-67
2022/10/24 11:17:41;;;;;;;7.18;1.48;;;16.50;97.10;;;;;;5098954;28;20089;-67
2022/10/24 11:20:34;;;;;;;5.65;1.20;;;16.50;97.20;;;;;;5098235;28;20028;-67
2022/10/24 11:23:28;;;;;;;4.90;1.27;;;16.50;97.30;;;;;;5086985;28;20027;-67
2022/10/24 11:26:08;;;;;;;;;;;16.50;97.50;;;;;;5098891;28;20024;-69
2022/10/24 11:29:21;;;;;;;5.72;1.00;;;16.50;97.60;;;;;;5098776;28;19904;-67
2022/10/24 11:31:52;;;;;;;7.40;1.33;;;16.50;97.80;;;;;;5092736;28;20523;-68
2022/10/24 11:34:31;;;;;;;6.03;1.05;;;16.60;98.10;;;;;;5099175;28;20031;-67
2022/10/24 11:37:16;;;;;;;3.70;0.70;;;16.70;98.10;;;;;;5097467;28;20488;-67
2022/10/24 11:39:53;;;;;;;5.43;1.10;;;16.80;97.90;;;;;;5098655;28;20511;-68
2022/10/24 11:42:45;;;;;;;4.97;0.77;;;16.90;97.60;;;;;;5098592;28;20059;-72
2022/10/24 11:45:31;;;;;;;5.28;1.00;;;16.90;97.50;;;;;;5098587;28;20024;-72
2022/10/24 11:48:21;;;;;;;4.35;0.80;;;17.00;97.50;;;;;;5098526;28;20052;-72
2022/10/24 11:50:56;;;;;;;7.57;1.00;;;17.10;97.30;;;;;;5098414;28;20028;-68
2022/10/24 11:53:30;;;;;;;5.30;0.88;;;17.20;97.20;;;;;;5091174;28;20020;-69
2022/10/24 11:56:16;;;;;;;7.50;1.00;;;17.30;97.00;;;;;;5095677;28;20111;-69
2022/10/24 11:59:00;;;;;;;5.90;1.23;;;17.30;97.20;;;;;;5086047;28;20024;-69
2022/10/24 12:01:38;;;;;;;3.33;0.95;;;17.50;96.90;;;;;;5095082;28;20073;-69
2022/10/24 12:04:29;;;;;;;7.30;1.27;;;17.70;97.30;;;;;;5096228;28;20036;-69
2022/10/24 12:07:14;;;;;;;6.28;1.00;;;17.90;96.90;;;;;;5086099;28;20024;-69
2022/10/24 12:10:17;;;;;;;6.20;1.17;;;18.00;96.50;;;;;;5097875;28;20061;-69
2022/10/24 12:13:04;;;;;;;5.50;0.98;;;18.10;96.20;;;;;;5097633;28;20028;-69
2022/10/24 12:15:47;;;;;;;4.55;1.05;;;18.10;95.40;;;;;;5097438;28;20076;-69
2022/10/24 12:18:33;;;;;;;4.50;0.80;;;18.00;94.70;;;;;;5096306;28;20023;-68
2022/10/24 12:21:09;;;;;;;4.13;0.80;;;17.90;95.40;;;;;;5097494;28;20028;-69
2022/10/24 12:23:35;;;;;;;4.82;0.88;;;17.90;95.50;;;;;;5097862;28;20074;-69
2022/10/24 12:26:26;;;;;;;5.10;0.82;;;17.90;95.00;;;;;;5097250;28;20032;-69
2022/10/24 12:29:05;;;;;;;6.95;1.30;;;17.70;95.40;;;;;;5097415;28;20024;-69
2022/10/24 12:31:36;;;;;;;5.55;1.10;;;17.70;95.10;;;;;;5097378;28;20028;-68
2022/10/24 12:34:26;;;;;;;5.78;1.13;;;17.70;95.30;;;;;;5095779;28;20058;-69
2022/10/24 12:37:17;;;;;;;5.40;0.88;;;17.70;95.60;;;;;;5091591;28;20032;-69
2022/10/24 12:39:51;;;;;;;4.15;0.88;;;17.70;95.60;;;;;;5095861;28;20035;-69
2022/10/24 12:42:23;;;;;;;4.85;0.98;;;17.70;95.50;;;;;;5097093;28;20032;-69
2022/10/24 12:45:00;;;;;;;3.95;0.98;;;17.70;95.40;;;;;;5097086;28;20038;-68
2022/10/24 12:47:32;;;;;;;6.05;1.05;;;17.70;95.60;;;;;;5096742;28;20059;-69
2022/10/24 12:50:21;;;;;;;6.93;1.00;;;17.70;95.10;;;;;;5096926;28;20058;-69
2022/10/24 12:52:46;;;;;;;4.75;1.00;;;17.80;95.90;;;;;;5094828;28;20024;-69
2022/10/24 12:55:31;;;;;;;4.85;0.93;;;17.90;95.10;;;;;;5096364;28;20034;-68
2022/10/24 12:57:57;;;;;;;9.15;1.15;;;17.90;95.00;;;;;;5097018;28;20095;-69
2022/10/24 13:00:28;;;;;;;6.05;1.48;;;18.00;94.50;;;;;;5096904;28;20054;-70
2022/10/24 13:03:12;;;;;;;6.70;0.93;;;18.10;94.90;;;;;;5096752;28;20053;-70
2022/10/24 13:05:52;;;;;;;4.38;0.90;;;18.20;94.30;;;;;;5097019;28;20456;-70
2022/10/24 13:08:49;;;;;;;5.45;1.00;;;18.10;93.50;;;;;;5097005;28;20077;-70